Thunder radar more information blitzortung!


Radar de pluja more information rain snow radar


Visita la nostra xarxa de llocs de meteo:

Template documentation
and downloads

And another site



No particular awareness of the weather is required.    There are no Weather-warnings

Pagina Historial Weather Underground text

Diari Resum May 19, 2016 Unitats:  Mètric    Imperial   Tant
« Previous Dia
SegĂźent Dia »
Diari Setmana Mensual Anual Personalitzada
  Maxima: Minima: Media:
Temperatura: 25.8 °C 14.4 °C 19.2 °C
Punt de rosada: 13.1 °C 7.2 °C 9.7 °C
Humitat: 83 % 34 % 56 %
Wind Speed: 24.5 km/h 0.0 km/h 11.5 km/h
RĂ fegues de vent: 24.5 km/h - -
Vent:- - SSE
Pression baro: 1020.9 hPa 1015.8 hPa -
Precipitacions: 0.0 mm    
Historical Graphs
 
 
Dades de taula per May 19, 2016
Temps Temperatura Punt de rosada Pression baro Vent Wind Speed RĂ fegues de vent Humitat Rainfall Rate (Hourly)
00:04 16.0 °C 13.1 °C 1015.8 hPa ENE 6.1 km/h 6.1 km/h 83 % 1.3 mm
00:09 15.9 °C 13.0 °C 1015.8 hPa ENE 6.1 km/h 6.1 km/h 83 % 0.0 mm
00:14 15.9 °C 13.0 °C 1015.8 hPa ENE 6.1 km/h 6.1 km/h 83 % 0.0 mm
02:40 14.4 °C 10.8 °C 1015.8 hPa WSW 3.2 km/h 6.4 km/h 79 % 0.0 mm
02:50 14.5 °C 10.7 °C 1015.8 hPa WSW 1.6 km/h 6.4 km/h 78 % 0.0 mm
03:00 14.6 °C 10.8 °C 1016.8 hPa WSW 3.2 km/h   78 % 0.0 mm
03:10 15.3 °C 11.1 °C 1015.8 hPa Calm   1.6 km/h 76 % 0.0 mm
03:20 15.3 °C 11.1 °C 1015.8 hPa SW 1.6 km/h 1.6 km/h 76 % 0.0 mm
03:30 15.4 °C 10.6 °C 1016.8 hPa WSW 1.6 km/h 1.6 km/h 73 % 0.0 mm
03:40 15.6 °C 10.8 °C 1016.8 hPa West 1.6 km/h 1.6 km/h 73 % 0.0 mm
03:50 16.1 °C 10.8 °C 1016.8 hPa West 3.2 km/h 4.8 km/h 71 % 0.0 mm
04:00 16.3 °C 10.6 °C 1016.8 hPa West 4.8 km/h 8.0 km/h 69 % 0.0 mm
04:10 16.7 °C 10.8 °C 1017.8 hPa West 4.8 km/h 6.4 km/h 68 % 0.0 mm
04:20 16.6 °C 9.8 °C 1017.8 hPa WSW 3.2 km/h 9.7 km/h 64 % 0.0 mm
04:30 16.7 °C 9.4 °C 1017.8 hPa WSW 8.0 km/h 8.0 km/h 62 % 0.0 mm
04:40 17.0 °C 8.9 °C 1017.8 hPa WSW 4.8 km/h 6.4 km/h 59 % 0.0 mm
04:50 17.2 °C 8.6 °C 1017.8 hPa West 4.8 km/h 4.8 km/h 57 % 0.0 mm
05:00 17.2 °C 7.6 °C 1017.8 hPa West 4.8 km/h 4.8 km/h 53 % 0.0 mm
05:10 17.5 °C 7.8 °C 1017.8 hPa West 4.8 km/h 4.8 km/h 53 % 0.0 mm
05:20 18.1 °C 8.4 °C 1017.8 hPa West 4.8 km/h 4.8 km/h 53 % 0.0 mm
05:30 18.3 °C 8.3 °C 1016.8 hPa West 8.0 km/h 16.1 km/h 52 % 0.0 mm
05:40 18.0 °C 8.0 °C 1017.8 hPa WSW 8.0 km/h 16.1 km/h 52 % 0.0 mm
05:50 17.7 °C 7.7 °C 1017.8 hPa WSW 8.0 km/h 16.1 km/h 52 % 0.0 mm
06:10 17.5 °C 7.2 °C 1017.8 hPa West 4.8 km/h 9.7 km/h 51 % 0.0 mm
11:18 18.0 °C 7.7 °C 1017.8 hPa WSW 5.8 km/h 5.8 km/h 51 % 0.0 mm
11:28 18.7 °C 8.1 °C 1017.8 hPa WSW 9.3 km/h 9.3 km/h 50 % 0.0 mm
11:33 19.1 °C 8.4 °C 1017.8 hPa WSW 7.6 km/h 7.6 km/h 50 % 0.0 mm
11:38 19.2 °C 8.2 °C 1016.8 hPa West 9.3 km/h 9.3 km/h 49 % 0.0 mm
11:43 19.4 °C 8.4 °C 1016.8 hPa WSW 9.3 km/h 9.3 km/h 49 % 0.0 mm
11:48 19.5 °C 8.5 °C 1016.8 hPa West 9.7 km/h 9.7 km/h 49 % 0.0 mm
11:53 19.5 °C 8.5 °C 1017.8 hPa SW 7.4 km/h 7.4 km/h 49 % 0.0 mm
12:03 19.9 °C 8.6 °C 1017.8 hPa West 5.6 km/h 5.6 km/h 48 % 0.0 mm
12:08 20.4 °C 9.0 °C 1016.8 hPa WSW 5.6 km/h 5.6 km/h 48 % 0.0 mm
12:13 20.8 °C 9.4 °C 1016.8 hPa WSW 7.4 km/h 7.4 km/h 48 % 0.0 mm
12:18 20.9 °C 9.2 °C 1016.8 hPa WSW 7.4 km/h 7.4 km/h 47 % 0.0 mm
12:23 21.3 °C 9.5 °C 1016.8 hPa North 4.2 km/h 4.7 km/h 47 % 0.0 mm
12:28 21.5 °C 9.4 °C 1016.8 hPa North 4.2 km/h 4.7 km/h 46 % 0.0 mm
12:33 21.5 °C 9.1 °C 1016.8 hPa WNW 4.2 km/h 7.6 km/h 45 % 0.0 mm
12:38 21.8 °C 9.7 °C 1016.8 hPa WSW 6.1 km/h 6.1 km/h 46 % 0.0 mm
12:43 22.1 °C 9.9 °C 1016.8 hPa West 7.4 km/h 7.4 km/h 46 % 0.0 mm
12:48 22.3 °C 10.1 °C 1016.8 hPa SW 7.4 km/h 7.4 km/h 46 % 0.0 mm
12:53 22.3 °C 9.8 °C 1015.8 hPa NNW 7.4 km/h 7.4 km/h 45 % 0.0 mm
12:59 22.3 °C 9.8 °C 1015.8 hPa WNW 7.4 km/h 7.4 km/h 45 % 0.0 mm
13:09 22.5 °C 9.6 °C 1015.8 hPa WSW 11.1 km/h 11.1 km/h 44 % 0.0 mm
13:14 23.1 °C 10.2 °C 1015.8 hPa SW 7.4 km/h 7.4 km/h 44 % 0.0 mm
13:19 23.6 °C 10.6 °C 1015.8 hPa WSW 5.6 km/h 5.6 km/h 44 % 0.0 mm
13:24 23.0 °C 9.7 °C 1015.8 hPa WSW 9.3 km/h 9.3 km/h 43 % 0.0 mm
13:29 23.0 °C 9.7 °C 1015.8 hPa WSW 5.8 km/h 5.8 km/h 43 % 0.0 mm
13:34 22.8 °C 9.2 °C 1015.8 hPa NNE 5.6 km/h 5.6 km/h 42 % 0.0 mm
13:39 23.4 °C 9.8 °C 1015.8 hPa SW 9.3 km/h 9.3 km/h 42 % 0.0 mm
13:49 23.5 °C 9.8 °C 1015.8 hPa WSW 5.6 km/h 5.6 km/h 42 % 0.0 mm
13:54 24.0 °C 9.9 °C 1015.8 hPa West 5.6 km/h 5.6 km/h 41 % 0.0 mm
13:59 24.6 °C 10.4 °C 1015.8 hPa West 9.3 km/h 9.3 km/h 41 % 0.0 mm
14:04 24.4 °C 9.9 °C 1015.8 hPa SW 11.4 km/h 11.4 km/h 40 % 0.0 mm
14:09 23.8 °C 9.0 °C 1015.8 hPa SSW 7.4 km/h 7.4 km/h 39 % 0.0 mm
14:14 24.3 °C 9.8 °C 1015.8 hPa WSW 12.6 km/h 12.6 km/h 40 % 0.0 mm
14:19 24.4 °C 9.6 °C 1015.8 hPa WSW 7.9 km/h 7.9 km/h 39 % 0.0 mm
14:24 24.2 °C 9.4 °C 1015.8 hPa ESE 14.8 km/h 14.8 km/h 39 % 0.0 mm
14:29 24.4 °C 9.6 °C 1015.8 hPa SW 9.7 km/h 9.7 km/h 39 % 0.0 mm
14:34 24.0 °C 8.8 °C 1015.8 hPa SW 7.4 km/h 7.4 km/h 38 % 0.0 mm
14:39 24.6 °C 9.7 °C 1015.8 hPa WSW 13.0 km/h 13.0 km/h 39 % 0.0 mm
14:44 25.0 °C 9.7 °C 1015.8 hPa SW 9.0 km/h 9.0 km/h 38 % 0.0 mm
14:49 25.2 °C 9.4 °C 1015.8 hPa SW 9.3 km/h 9.3 km/h 37 % 0.0 mm
14:54 25.8 °C 9.6 °C 1015.8 hPa SE 3.9 km/h 3.9 km/h 36 % 0.0 mm
15:04 25.1 °C 9.4 °C 1015.8 hPa WSW 5.6 km/h 5.6 km/h 37 % 0.0 mm
15:09 25.0 °C 8.1 °C 1015.8 hPa South 9.3 km/h 9.3 km/h 34 % 0.0 mm
15:14 25.0 °C 8.4 °C 1015.8 hPa NNE 5.6 km/h 5.6 km/h 35 % 0.0 mm
15:19 24.8 °C 9.1 °C 1015.8 hPa East 5.8 km/h 5.8 km/h 37 % 0.0 mm
15:24 24.5 °C 9.2 °C 1015.8 hPa ESE 12.6 km/h 12.6 km/h 38 % 0.0 mm
15:29 24.6 °C 9.7 °C 1015.8 hPa SSW 9.3 km/h 9.3 km/h 39 % 0.0 mm
15:34 23.8 °C 9.0 °C 1015.8 hPa East 16.7 km/h 16.7 km/h 39 % 0.0 mm
15:39 23.2 °C 8.5 °C 1015.8 hPa ESE 21.2 km/h 21.2 km/h 39 % 0.0 mm
15:44 23.1 °C 8.8 °C 1015.8 hPa East 23.3 km/h 23.3 km/h 40 % 0.0 mm
15:49 22.8 °C 8.8 °C 1015.8 hPa ENE 21.2 km/h 21.2 km/h 41 % 0.0 mm
15:54 22.5 °C 8.6 °C 1015.8 hPa ESE 17.2 km/h 17.2 km/h 41 % 0.0 mm
15:59 22.3 °C 8.4 °C 1015.8 hPa ENE 20.4 km/h 20.4 km/h 41 % 0.0 mm
16:04 22.2 °C 8.3 °C 1015.8 hPa East 22.2 km/h 22.2 km/h 41 % 0.0 mm
16:09 22.0 °C 8.5 °C 1015.8 hPa East 14.8 km/h 14.8 km/h 42 % 0.0 mm
16:14 22.0 °C 8.5 °C 1015.8 hPa ESE 16.7 km/h 16.7 km/h 42 % 0.0 mm
16:19 21.7 °C 8.2 °C 1015.8 hPa ESE 20.4 km/h 20.4 km/h 42 % 0.0 mm
16:24 21.5 °C 8.1 °C 1015.8 hPa ESE 16.7 km/h 16.7 km/h 42 % 0.0 mm
16:29 21.7 °C 8.2 °C 1015.8 hPa ESE 22.2 km/h 22.2 km/h 42 % 0.0 mm
16:34 21.7 °C 8.2 °C 1015.8 hPa East 18.5 km/h 18.5 km/h 42 % 0.0 mm
16:39 21.5 °C 8.1 °C 1015.8 hPa ESE 20.6 km/h 20.6 km/h 42 % 0.0 mm
16:44 21.5 °C 8.1 °C 1015.8 hPa ESE 20.9 km/h 20.9 km/h 42 % 0.0 mm
16:49 21.6 °C 8.1 °C 1015.8 hPa ESE 20.4 km/h 20.4 km/h 42 % 0.0 mm
16:54 21.7 °C 8.2 °C 1015.8 hPa ENE 16.7 km/h 16.7 km/h 42 % 0.0 mm
16:59 21.7 °C 8.2 °C 1015.8 hPa ENE 15.6 km/h 15.6 km/h 42 % 0.0 mm
17:04 21.8 °C 8.3 °C 1015.8 hPa East 16.1 km/h 16.1 km/h 42 % 0.0 mm
17:09 21.7 °C 7.9 °C 1015.8 hPa East 24.1 km/h 24.1 km/h 41 % 0.0 mm
17:14 21.8 °C 7.9 °C 1015.8 hPa SE 22.2 km/h 22.2 km/h 41 % 0.0 mm
17:24 21.6 °C 8.5 °C 1015.8 hPa ESE 20.6 km/h 20.6 km/h 43 % 0.0 mm
17:29 20.9 °C 8.8 °C 1015.8 hPa NE 15.8 km/h 15.8 km/h 46 % 0.0 mm
17:34 20.8 °C 9.1 °C 1015.8 hPa ENE 20.4 km/h 20.4 km/h 47 % 0.0 mm
17:39 20.4 °C 9.3 °C 1015.8 hPa ENE 22.2 km/h 22.2 km/h 49 % 0.0 mm
17:44 20.3 °C 8.9 °C 1015.8 hPa East 20.4 km/h 20.4 km/h 48 % 0.0 mm
17:49 20.2 °C 9.2 °C 1015.8 hPa ENE 24.5 km/h 24.5 km/h 49 % 0.0 mm
17:54 20.2 °C 9.2 °C 1015.8 hPa ESE 16.7 km/h 16.7 km/h 49 % 0.0 mm
17:59 20.0 °C 9.3 °C 1015.8 hPa ESE 14.8 km/h 14.8 km/h 50 % 0.0 mm
18:04 20.0 °C 9.3 °C 1015.8 hPa ESE 18.5 km/h 18.5 km/h 50 % 0.0 mm
18:09 19.6 °C 9.2 °C 1016.8 hPa ENE 13.0 km/h 13.0 km/h 51 % 0.0 mm
18:14 19.8 °C 9.7 °C 1016.8 hPa ESE 22.2 km/h 22.2 km/h 52 % 0.0 mm
18:19 19.8 °C 9.9 °C 1016.8 hPa East 20.4 km/h 20.4 km/h 53 % 0.0 mm
18:24 19.7 °C 9.8 °C 1015.8 hPa ESE 16.7 km/h 16.7 km/h 53 % 0.0 mm
18:29 19.6 °C 10.1 °C 1015.8 hPa ESE 18.5 km/h 18.5 km/h 54 % 0.0 mm
18:34 19.3 °C 10.1 °C 1015.8 hPa East 20.4 km/h 20.4 km/h 55 % 0.0 mm
18:39 19.2 °C 9.9 °C 1016.8 hPa ENE 20.4 km/h 20.4 km/h 55 % 0.0 mm
18:44 19.2 °C 10.2 °C 1016.8 hPa ESE 14.8 km/h 14.8 km/h 56 % 0.0 mm
18:49 19.0 °C 10.0 °C 1016.8 hPa East 20.4 km/h 20.4 km/h 56 % 0.0 mm
18:54 18.8 °C 10.3 °C 1016.8 hPa ESE 20.4 km/h 20.4 km/h 58 % 0.0 mm
18:59 18.6 °C 10.2 °C 1016.8 hPa ESE 22.2 km/h 22.2 km/h 58 % 0.0 mm
19:04 18.5 °C 10.6 °C 1016.8 hPa ESE 16.7 km/h 16.7 km/h 60 % 0.0 mm
19:09 18.4 °C 10.5 °C 1017.8 hPa SE 20.4 km/h 20.4 km/h 60 % 0.0 mm
19:14 18.4 °C 10.5 °C 1017.8 hPa ENE 14.0 km/h 14.0 km/h 60 % 0.0 mm
19:19 18.2 °C 10.6 °C 1017.8 hPa East 13.0 km/h 13.0 km/h 61 % 0.0 mm
19:24 18.1 °C 10.4 °C 1017.8 hPa East 16.7 km/h 16.7 km/h 61 % 0.0 mm
19:30 17.9 °C 10.5 °C 1017.8 hPa ESE 15.8 km/h 15.8 km/h 62 % 0.0 mm
19:35 17.8 °C 10.7 °C 1017.8 hPa East 14.0 km/h 14.0 km/h 63 % 0.0 mm
19:40 17.7 °C 10.3 °C 1016.8 hPa ESE 13.7 km/h 13.7 km/h 62 % 0.0 mm
19:45 17.7 °C 10.8 °C 1016.8 hPa East 13.0 km/h 13.0 km/h 64 % 0.0 mm
19:50 17.6 °C 10.4 °C 1016.8 hPa East 18.5 km/h 18.5 km/h 63 % 0.0 mm
19:55 17.4 °C 10.5 °C 1016.8 hPa East 16.7 km/h 16.7 km/h 64 % 0.0 mm
20:00 17.2 °C 10.8 °C 1016.8 hPa ESE 12.9 km/h 20.9 km/h 66 % 0.0 mm
20:05 17.1 °C 10.6 °C 1016.8 hPa ESE 12.9 km/h 20.9 km/h 66 % 0.0 mm
20:10 16.9 °C 10.5 °C 1017.8 hPa SE 11.3 km/h 12.9 km/h 66 % 0.0 mm
20:15 16.8 °C 10.6 °C 1017.8 hPa SE 11.3 km/h 12.9 km/h 67 % 0.0 mm
20:20 16.7 °C 10.6 °C 1017.8 hPa SE 11.3 km/h 12.9 km/h 67 % 0.0 mm
20:25 16.6 °C 10.7 °C 1017.8 hPa SE 11.3 km/h 12.9 km/h 68 % 0.0 mm
20:30 16.6 °C 10.4 °C 1017.8 hPa SE 11.3 km/h 12.9 km/h 67 % 0.0 mm
20:35 16.5 °C 10.6 °C 1017.8 hPa SE 11.3 km/h 12.9 km/h 68 % 0.0 mm
20:40 16.4 °C 10.5 °C 1017.8 hPa SE 11.3 km/h 12.9 km/h 68 % 0.0 mm
20:45 16.3 °C 10.4 °C 1017.8 hPa SE 13.0 km/h 13.0 km/h 68 % 0.0 mm
20:50 16.2 °C 10.3 °C 1017.8 hPa SE 11.3 km/h 12.9 km/h 68 % 0.0 mm
20:55 16.1 °C 10.4 °C 1018.8 hPa ESE 11.3 km/h 11.3 km/h 69 % 0.0 mm
21:00 16.1 °C 10.4 °C 1018.8 hPa ESE 11.3 km/h 11.3 km/h 69 % 0.0 mm
21:05 16.0 °C 10.3 °C 1018.8 hPa ESE 11.3 km/h 11.3 km/h 69 % 0.0 mm
21:10 15.9 °C 10.4 °C 1018.8 hPa ESE 11.3 km/h 11.3 km/h 70 % 0.0 mm
21:15 15.8 °C 10.4 °C 1018.8 hPa ESE 11.3 km/h 11.3 km/h 70 % 0.0 mm
21:20 15.8 °C 10.3 °C 1018.8 hPa ESE 11.3 km/h 11.3 km/h 70 % 0.0 mm
21:25 15.7 °C 10.4 °C 1018.8 hPa ESE 11.3 km/h 11.3 km/h 71 % 0.0 mm
21:30 15.7 °C 10.4 °C 1018.8 hPa ESE 11.3 km/h 11.3 km/h 71 % 0.0 mm
21:35 15.7 °C 10.4 °C 1018.8 hPa ESE 11.3 km/h 11.3 km/h 71 % 0.0 mm
21:40 15.6 °C 10.6 °C 1019.9 hPa ESE 11.3 km/h 11.3 km/h 72 % 0.0 mm
21:45 15.6 °C 10.6 °C 1019.9 hPa ESE 11.3 km/h 11.3 km/h 72 % 0.0 mm
21:50 15.6 °C 10.6 °C 1019.9 hPa ESE 9.3 km/h 11.1 km/h 72 % 0.0 mm
21:55 15.6 °C 10.6 °C 1019.9 hPa ESE 9.3 km/h 11.1 km/h 72 % 0.0 mm
22:00 15.6 °C 10.8 °C 1019.9 hPa ESE 9.3 km/h 11.1 km/h 73 % 0.0 mm
22:05 15.6 °C 10.8 °C 1019.9 hPa ESE 9.3 km/h 11.1 km/h 73 % 0.0 mm
22:10 15.6 °C 10.8 °C 1019.9 hPa ESE 9.3 km/h 11.1 km/h 73 % 0.0 mm
22:15 15.6 °C 10.8 °C 1019.9 hPa ESE 9.3 km/h 11.1 km/h 73 % 0.0 mm
22:20 15.5 °C 10.7 °C 1019.9 hPa ESE 9.3 km/h 11.1 km/h 73 % 0.0 mm
22:25 15.5 °C 10.7 °C 1019.9 hPa ESE 9.3 km/h 11.1 km/h 73 % 0.0 mm
22:35 15.5 °C 10.7 °C 1019.9 hPa ESE 9.3 km/h 11.1 km/h 73 % 0.0 mm
22:40 15.5 °C 10.7 °C 1019.9 hPa ESE 9.3 km/h 11.1 km/h 73 % 0.0 mm
22:45 15.5 °C 10.7 °C 1019.9 hPa ESE 9.3 km/h 11.1 km/h 73 % 0.0 mm
22:50 15.5 °C 10.7 °C 1019.9 hPa ESE 9.3 km/h 11.1 km/h 73 % 0.0 mm
22:55 15.5 °C 10.7 °C 1020.9 hPa ESE 9.3 km/h 11.1 km/h 73 % 0.0 mm
23:00 15.5 °C 10.7 °C 1020.9 hPa ESE 9.3 km/h 11.1 km/h 73 % 0.0 mm
23:10 15.5 °C 10.7 °C 1020.9 hPa ESE 11.3 km/h 11.3 km/h 73 % 0.0 mm
23:15 15.5 °C 10.7 °C 1020.9 hPa ESE 11.3 km/h 11.3 km/h 73 % 0.0 mm
23:20 15.5 °C 10.7 °C 1020.9 hPa ESE 11.3 km/h 11.3 km/h 73 % 0.0 mm
23:25 15.4 °C 10.6 °C 1020.9 hPa ESE 11.3 km/h 11.3 km/h 73 % 0.0 mm
23:30 15.5 °C 10.7 °C 1020.9 hPa ESE 9.3 km/h 11.1 km/h 73 % 0.0 mm
23:35 15.5 °C 10.7 °C 1020.9 hPa ESE 11.3 km/h 11.3 km/h 73 % 0.0 mm
23:40 15.5 °C 10.7 °C 1020.9 hPa ESE 11.3 km/h 11.3 km/h 73 % 0.0 mm
23:45 15.5 °C 10.7 °C 1020.9 hPa ESE 11.3 km/h 11.3 km/h 73 % 0.0 mm
23:50 15.5 °C 10.7 °C 1020.9 hPa ESE 9.3 km/h 11.1 km/h 73 % 0.0 mm
23:55 15.5 °C 10.7 °C 1020.9 hPa ESE 9.3 km/h 11.1 km/h 73 % 0.0 mm
Meteo Sesrovires
Elogis d' Weather Underground - 3.5 mb

Guio original per  Jim McMurry - jmcmurry@mwt.net Adaptat per a la plantilla per  Wim van der Kuil - Leuven-Template.eu

Trobareu la nostra informacio del temps tambe a:

Weather Underground

AWEKAS